sensor_id;sensor_type;location;lat;lon;timestamp;P1;durP1;ratioP1;P2;durP2;ratioP2
10122;SDS011;5101;49.038;8.710;2022-08-21T00:01:14;1.92;;;1.20;;
10122;SDS011;5101;49.038;8.710;2022-08-21T00:03:44;3.53;;;1.92;;
10122;SDS011;5101;49.038;8.710;2022-08-21T00:06:10;2.67;;;1.30;;
10122;SDS011;5101;49.038;8.710;2022-08-21T00:08:35;1.60;;;1.30;;
10122;SDS011;5101;49.038;8.710;2022-08-21T00:11:01;3.58;;;1.40;;
10122;SDS011;5101;49.038;8.710;2022-08-21T00:13:28;1.75;;;1.20;;
10122;SDS011;5101;49.038;8.710;2022-08-21T00:15:54;4.00;;;1.45;;
10122;SDS011;5101;49.038;8.710;2022-08-21T00:18:19;2.00;;;1.45;;
10122;SDS011;5101;49.038;8.710;2022-08-21T00:20:45;4.50;;;1.20;;
10122;SDS011;5101;49.038;8.710;2022-08-21T00:23:12;1.70;;;1.40;;
10122;SDS011;5101;49.038;8.710;2022-08-21T00:25:38;3.60;;;1.38;;
10122;SDS011;5101;49.038;8.710;2022-08-21T00:28:04;2.55;;;1.38;;
10122;SDS011;5101;49.038;8.710;2022-08-21T00:30:32;3.53;;;1.35;;
10122;SDS011;5101;49.038;8.710;2022-08-21T00:32:59;1.33;;;1.20;;
10122;SDS011;5101;49.038;8.710;2022-08-21T00:35:27;1.88;;;1.25;;
10122;SDS011;5101;49.038;8.710;2022-08-21T00:37:55;1.58;;;1.38;;
10122;SDS011;5101;49.038;8.710;2022-08-21T00:40:23;5.20;;;1.13;;
10122;SDS011;5101;49.038;8.710;2022-08-21T00:43:05;1.83;;;1.20;;
10122;SDS011;5101;49.038;8.710;2022-08-21T00:45:32;3.25;;;1.33;;
10122;SDS011;5101;49.038;8.710;2022-08-21T00:47:58;2.35;;;1.60;;
10122;SDS011;5101;49.038;8.710;2022-08-21T00:50:26;3.28;;;1.20;;
10122;SDS011;5101;49.038;8.710;2022-08-21T00:52:54;1.42;;;1.30;;
10122;SDS011;5101;49.038;8.710;2022-08-21T00:55:20;3.40;;;1.50;;
10122;SDS011;5101;49.038;8.710;2022-08-21T00:57:48;2.00;;;1.38;;
10122;SDS011;5101;49.038;8.710;2022-08-21T01:00:19;1.52;;;1.38;;
10122;SDS011;5101;49.038;8.710;2022-08-21T01:02:50;3.42;;;1.70;;
10122;SDS011;5101;49.038;8.710;2022-08-21T01:05:15;2.33;;;1.30;;
10122;SDS011;5101;49.038;8.710;2022-08-21T01:07:42;2.22;;;1.38;;
10122;SDS011;5101;49.038;8.710;2022-08-21T01:10:09;1.48;;;1.38;;
10122;SDS011;5101;49.038;8.710;2022-08-21T01:12:34;1.67;;;1.38;;
10122;SDS011;5101;49.038;8.710;2022-08-21T01:15:01;3.33;;;1.33;;
10122;SDS011;5101;49.038;8.710;2022-08-21T01:17:28;2.28;;;1.33;;
10122;SDS011;5101;49.038;8.710;2022-08-21T01:19:57;2.88;;;1.30;;
10122;SDS011;5101;49.038;8.710;2022-08-21T01:22:23;2.47;;;1.30;;
10122;SDS011;5101;49.038;8.710;2022-08-21T01:24:49;3.03;;;1.40;;
10122;SDS011;5101;49.038;8.710;2022-08-21T01:27:15;1.67;;;1.42;;
10122;SDS011;5101;49.038;8.710;2022-08-21T01:30:04;2.50;;;1.50;;
10122;SDS011;5101;49.038;8.710;2022-08-21T01:32:33;2.95;;;1.40;;
10122;SDS011;5101;49.038;8.710;2022-08-21T01:34:59;2.08;;;1.42;;
10122;SDS011;5101;49.038;8.710;2022-08-21T01:37:24;7.00;;;1.50;;
10122;SDS011;5101;49.038;8.710;2022-08-21T01:39:50;3.47;;;1.50;;
10122;SDS011;5101;49.038;8.710;2022-08-21T01:42:16;2.13;;;1.42;;
10122;SDS011;5101;49.038;8.710;2022-08-21T01:44:42;1.52;;;1.42;;
10122;SDS011;5101;49.038;8.710;2022-08-21T01:47:09;2.75;;;1.55;;
10122;SDS011;5101;49.038;8.710;2022-08-21T01:49:36;2.17;;;1.52;;
10122;SDS011;5101;49.038;8.710;2022-08-21T01:52:02;2.10;;;1.40;;
10122;SDS011;5101;49.038;8.710;2022-08-21T01:54:28;2.80;;;1.48;;
10122;SDS011;5101;49.038;8.710;2022-08-21T01:56:54;2.70;;;1.92;;
10122;SDS011;5101;49.038;8.710;2022-08-21T01:59:20;1.67;;;1.38;;
10122;SDS011;5101;49.038;8.710;2022-08-21T02:01:47;3.08;;;1.33;;
10122;SDS011;5101;49.038;8.710;2022-08-21T02:04:14;2.28;;;1.25;;
10122;SDS011;5101;49.038;8.710;2022-08-21T02:06:39;2.67;;;1.42;;
10122;SDS011;5101;49.038;8.710;2022-08-21T02:09:06;2.33;;;1.30;;
10122;SDS011;5101;49.038;8.710;2022-08-21T02:11:33;4.35;;;1.70;;
10122;SDS011;5101;49.038;8.710;2022-08-21T02:13:59;3.60;;;1.40;;
10122;SDS011;5101;49.038;8.710;2022-08-21T02:16:25;1.75;;;1.30;;
10122;SDS011;5101;49.038;8.710;2022-08-21T02:18:50;2.53;;;1.38;;
10122;SDS011;5101;49.038;8.710;2022-08-21T02:21:16;3.25;;;1.42;;
10122;SDS011;5101;49.038;8.710;2022-08-21T02:23:42;3.20;;;1.33;;
10122;SDS011;5101;49.038;8.710;2022-08-21T02:26:08;1.95;;;1.38;;
10122;SDS011;5101;49.038;8.710;2022-08-21T02:28:34;1.63;;;1.23;;
10122;SDS011;5101;49.038;8.710;2022-08-21T02:31:01;3.55;;;1.42;;
10122;SDS011;5101;49.038;8.710;2022-08-21T02:33:27;2.88;;;1.38;;
10122;SDS011;5101;49.038;8.710;2022-08-21T02:35:53;2.67;;;1.58;;
10122;SDS011;5101;49.038;8.710;2022-08-21T02:38:21;2.13;;;1.30;;
10122;SDS011;5101;49.038;8.710;2022-08-21T02:40:51;2.45;;;1.48;;
10122;SDS011;5101;49.038;8.710;2022-08-21T02:43:18;1.85;;;1.45;;
10122;SDS011;5101;49.038;8.710;2022-08-21T02:45:45;2.95;;;1.50;;
10122;SDS011;5101;49.038;8.710;2022-08-21T02:48:12;3.60;;;1.63;;
10122;SDS011;5101;49.038;8.710;2022-08-21T02:50:45;2.45;;;1.60;;
10122;SDS011;5101;49.038;8.710;2022-08-21T02:53:13;2.90;;;1.30;;
10122;SDS011;5101;49.038;8.710;2022-08-21T02:55:42;3.15;;;1.55;;
10122;SDS011;5101;49.038;8.710;2022-08-21T02:58:12;1.83;;;1.55;;
10122;SDS011;5101;49.038;8.710;2022-08-21T03:00:39;2.22;;;1.50;;
10122;SDS011;5101;49.038;8.710;2022-08-21T03:03:06;5.97;;;1.30;;
10122;SDS011;5101;49.038;8.710;2022-08-21T03:05:34;3.03;;;1.50;;
10122;SDS011;5101;49.038;8.710;2022-08-21T03:08:03;2.13;;;1.48;;
10122;SDS011;5101;49.038;8.710;2022-08-21T03:10:31;4.68;;;1.67;;
10122;SDS011;5101;49.038;8.710;2022-08-21T03:12:57;2.28;;;1.20;;
10122;SDS011;5101;49.038;8.710;2022-08-21T03:15:22;3.08;;;1.58;;
10122;SDS011;5101;49.038;8.710;2022-08-21T03:17:49;2.22;;;1.40;;
10122;SDS011;5101;49.038;8.710;2022-08-21T03:20:16;3.10;;;1.30;;
10122;SDS011;5101;49.038;8.710;2022-08-21T03:22:43;2.28;;;1.77;;
10122;SDS011;5101;49.038;8.710;2022-08-21T03:25:08;3.85;;;1.63;;
10122;SDS011;5101;49.038;8.710;2022-08-21T03:27:35;4.07;;;1.65;;
10122;SDS011;5101;49.038;8.710;2022-08-21T03:30:02;3.90;;;1.40;;
10122;SDS011;5101;49.038;8.710;2022-08-21T03:32:29;3.15;;;1.45;;
10122;SDS011;5101;49.038;8.710;2022-08-21T03:34:56;2.50;;;1.52;;
10122;SDS011;5101;49.038;8.710;2022-08-21T03:37:22;4.63;;;2.08;;
10122;SDS011;5101;49.038;8.710;2022-08-21T03:39:49;1.40;;;1.30;;
10122;SDS011;5101;49.038;8.710;2022-08-21T03:42:15;3.65;;;1.80;;
10122;SDS011;5101;49.038;8.710;2022-08-21T03:44:41;2.42;;;1.40;;
10122;SDS011;5101;49.038;8.710;2022-08-21T03:47:06;1.83;;;1.45;;
10122;SDS011;5101;49.038;8.710;2022-08-21T03:49:32;2.85;;;1.50;;
10122;SDS011;5101;49.038;8.710;2022-08-21T03:51:58;2.72;;;1.40;;
10122;SDS011;5101;49.038;8.710;2022-08-21T03:54:24;3.28;;;1.30;;
10122;SDS011;5101;49.038;8.710;2022-08-21T03:56:50;2.95;;;1.60;;
10122;SDS011;5101;49.038;8.710;2022-08-21T03:59:16;2.00;;;1.40;;
10122;SDS011;5101;49.038;8.710;2022-08-21T04:01:53;2.08;;;1.60;;
10122;SDS011;5101;49.038;8.710;2022-08-21T04:04:19;3.10;;;1.85;;
10122;SDS011;5101;49.038;8.710;2022-08-21T04:06:45;1.92;;;1.42;;
10122;SDS011;5101;49.038;8.710;2022-08-21T04:09:10;3.50;;;1.42;;
10122;SDS011;5101;49.038;8.710;2022-08-21T04:11:36;2.03;;;1.60;;
10122;SDS011;5101;49.038;8.710;2022-08-21T04:14:02;5.05;;;1.75;;
10122;SDS011;5101;49.038;8.710;2022-08-21T04:16:28;4.85;;;1.77;;
10122;SDS011;5101;49.038;8.710;2022-08-21T04:18:53;4.07;;;1.85;;
10122;SDS011;5101;49.038;8.710;2022-08-21T04:21:19;4.47;;;1.80;;
10122;SDS011;5101;49.038;8.710;2022-08-21T04:23:44;2.92;;;1.88;;
10122;SDS011;5101;49.038;8.710;2022-08-21T04:26:10;4.75;;;1.40;;
10122;SDS011;5101;49.038;8.710;2022-08-21T04:28:35;2.40;;;1.75;;
10122;SDS011;5101;49.038;8.710;2022-08-21T04:31:01;4.82;;;1.50;;
10122;SDS011;5101;49.038;8.710;2022-08-21T04:33:26;1.65;;;1.42;;
10122;SDS011;5101;49.038;8.710;2022-08-21T04:35:52;3.30;;;1.88;;
10122;SDS011;5101;49.038;8.710;2022-08-21T04:38:18;2.92;;;1.50;;
10122;SDS011;5101;49.038;8.710;2022-08-21T04:40:44;1.67;;;1.58;;
10122;SDS011;5101;49.038;8.710;2022-08-21T04:43:10;2.53;;;1.85;;
10122;SDS011;5101;49.038;8.710;2022-08-21T04:45:37;2.38;;;1.67;;
10122;SDS011;5101;49.038;8.710;2022-08-21T04:48:06;3.00;;;2.00;;
10122;SDS011;5101;49.038;8.710;2022-08-21T04:53:09;3.20;;;1.80;;
10122;SDS011;5101;49.038;8.710;2022-08-21T04:55:39;3.17;;;1.58;;
10122;SDS011;5101;49.038;8.710;2022-08-21T04:58:06;2.33;;;1.63;;
10122;SDS011;5101;49.038;8.710;2022-08-21T05:00:35;3.25;;;1.75;;
10122;SDS011;5101;49.038;8.710;2022-08-21T05:03:00;2.90;;;1.70;;
10122;SDS011;5101;49.038;8.710;2022-08-21T05:05:28;3.17;;;1.42;;
10122;SDS011;5101;49.038;8.710;2022-08-21T05:07:54;2.47;;;1.80;;
10122;SDS011;5101;49.038;8.710;2022-08-21T05:10:21;5.25;;;2.25;;
10122;SDS011;5101;49.038;8.710;2022-08-21T05:12:47;5.05;;;2.05;;
10122;SDS011;5101;49.038;8.710;2022-08-21T05:15:14;2.92;;;1.98;;
10122;SDS011;5101;49.038;8.710;2022-08-21T05:17:40;3.92;;;1.75;;
10122;SDS011;5101;49.038;8.710;2022-08-21T05:20:06;3.83;;;1.80;;
10122;SDS011;5101;49.038;8.710;2022-08-21T05:22:33;2.35;;;2.10;;
10122;SDS011;5101;49.038;8.710;2022-08-21T05:24:58;3.67;;;1.73;;
10122;SDS011;5101;49.038;8.710;2022-08-21T05:27:24;2.45;;;2.05;;
10122;SDS011;5101;49.038;8.710;2022-08-21T05:29:49;4.03;;;2.00;;
10122;SDS011;5101;49.038;8.710;2022-08-21T05:32:15;2.65;;;1.70;;
10122;SDS011;5101;49.038;8.710;2022-08-21T05:34:40;3.38;;;1.95;;
10122;SDS011;5101;49.038;8.710;2022-08-21T05:37:06;2.40;;;1.80;;
10122;SDS011;5101;49.038;8.710;2022-08-21T05:39:32;5.20;;;1.77;;
10122;SDS011;5101;49.038;8.710;2022-08-21T05:41:57;4.25;;;1.95;;
10122;SDS011;5101;49.038;8.710;2022-08-21T05:44:23;2.40;;;1.70;;
10122;SDS011;5101;49.038;8.710;2022-08-21T05:46:48;3.28;;;2.00;;
10122;SDS011;5101;49.038;8.710;2022-08-21T05:49:14;7.93;;;1.73;;
10122;SDS011;5101;49.038;8.710;2022-08-21T05:51:40;3.15;;;1.88;;
10122;SDS011;5101;49.038;8.710;2022-08-21T05:54:06;3.60;;;1.98;;
10122;SDS011;5101;49.038;8.710;2022-08-21T05:56:32;3.70;;;2.15;;
10122;SDS011;5101;49.038;8.710;2022-08-21T05:58:58;3.58;;;1.85;;
10122;SDS011;5101;49.038;8.710;2022-08-21T06:01:24;1.70;;;1.58;;
10122;SDS011;5101;49.038;8.710;2022-08-21T06:03:49;2.70;;;1.95;;
10122;SDS011;5101;49.038;8.710;2022-08-21T06:06:15;2.75;;;1.80;;
10122;SDS011;5101;49.038;8.710;2022-08-21T06:08:41;2.63;;;1.77;;
10122;SDS011;5101;49.038;8.710;2022-08-21T06:11:07;3.33;;;1.58;;
10122;SDS011;5101;49.038;8.710;2022-08-21T06:13:33;2.28;;;1.50;;
10122;SDS011;5101;49.038;8.710;2022-08-21T06:18:29;4.03;;;1.85;;
10122;SDS011;5101;49.038;8.710;2022-08-21T06:20:55;2.05;;;1.27;;
10122;SDS011;5101;49.038;8.710;2022-08-21T06:23:21;3.97;;;1.73;;
10122;SDS011;5101;49.038;8.710;2022-08-21T06:25:46;2.35;;;1.50;;
10122;SDS011;5101;49.038;8.710;2022-08-21T06:28:11;2.72;;;1.67;;
10122;SDS011;5101;49.038;8.710;2022-08-21T06:30:37;2.50;;;1.63;;
10122;SDS011;5101;49.038;8.710;2022-08-21T06:33:04;3.55;;;1.70;;
10122;SDS011;5101;49.038;8.710;2022-08-21T06:35:30;3.60;;;1.63;;
10122;SDS011;5101;49.038;8.710;2022-08-21T06:37:56;2.65;;;1.20;;
10122;SDS011;5101;49.038;8.710;2022-08-21T06:40:22;1.63;;;1.40;;
10122;SDS011;5101;49.038;8.710;2022-08-21T06:42:47;3.75;;;1.90;;
10122;SDS011;5101;49.038;8.710;2022-08-21T06:45:13;4.45;;;1.63;;
10122;SDS011;5101;49.038;8.710;2022-08-21T06:47:39;2.65;;;1.40;;
10122;SDS011;5101;49.038;8.710;2022-08-21T06:50:05;3.17;;;1.42;;
10122;SDS011;5101;49.038;8.710;2022-08-21T06:52:35;3.83;;;1.30;;
10122;SDS011;5101;49.038;8.710;2022-08-21T06:55:01;3.30;;;1.60;;
10122;SDS011;5101;49.038;8.710;2022-08-21T06:57:27;3.53;;;1.65;;
10122;SDS011;5101;49.038;8.710;2022-08-21T06:59:53;4.10;;;1.63;;
10122;SDS011;5101;49.038;8.710;2022-08-21T07:02:18;3.95;;;1.60;;
10122;SDS011;5101;49.038;8.710;2022-08-21T07:04:44;3.33;;;1.77;;
10122;SDS011;5101;49.038;8.710;2022-08-21T07:07:10;4.18;;;1.73;;
10122;SDS011;5101;49.038;8.710;2022-08-21T07:09:35;3.38;;;1.67;;
10122;SDS011;5101;49.038;8.710;2022-08-21T07:12:01;4.97;;;1.73;;
10122;SDS011;5101;49.038;8.710;2022-08-21T07:14:27;3.80;;;1.73;;
10122;SDS011;5101;49.038;8.710;2022-08-21T07:16:53;3.00;;;1.70;;
10122;SDS011;5101;49.038;8.710;2022-08-21T07:19:19;2.83;;;1.90;;
10122;SDS011;5101;49.038;8.710;2022-08-21T07:21:45;4.35;;;1.92;;
10122;SDS011;5101;49.038;8.710;2022-08-21T07:24:11;3.90;;;1.60;;
10122;SDS011;5101;49.038;8.710;2022-08-21T07:26:37;2.47;;;1.50;;
10122;SDS011;5101;49.038;8.710;2022-08-21T07:29:03;4.53;;;1.70;;
10122;SDS011;5101;49.038;8.710;2022-08-21T07:31:29;4.50;;;1.70;;
10122;SDS011;5101;49.038;8.710;2022-08-21T07:33:54;2.65;;;1.67;;
10122;SDS011;5101;49.038;8.710;2022-08-21T07:36:20;3.00;;;1.70;;
10122;SDS011;5101;49.038;8.710;2022-08-21T07:38:46;5.82;;;1.85;;
10122;SDS011;5101;49.038;8.710;2022-08-21T07:41:16;3.58;;;1.75;;
10122;SDS011;5101;49.038;8.710;2022-08-21T07:43:46;7.57;;;1.92;;
10122;SDS011;5101;49.038;8.710;2022-08-21T07:46:12;3.78;;;1.75;;
10122;SDS011;5101;49.038;8.710;2022-08-21T07:48:38;5.65;;;1.92;;
10122;SDS011;5101;49.038;8.710;2022-08-21T07:51:06;4.25;;;2.13;;
10122;SDS011;5101;49.038;8.710;2022-08-21T07:53:34;4.25;;;2.03;;
10122;SDS011;5101;49.038;8.710;2022-08-21T07:56:00;7.43;;;2.15;;
10122;SDS011;5101;49.038;8.710;2022-08-21T07:58:26;6.93;;;1.98;;
10122;SDS011;5101;49.038;8.710;2022-08-21T08:00:51;4.13;;;2.10;;
10122;SDS011;5101;49.038;8.710;2022-08-21T08:03:17;3.10;;;1.73;;
10122;SDS011;5101;49.038;8.710;2022-08-21T08:05:42;4.35;;;2.25;;
10122;SDS011;5101;49.038;8.710;2022-08-21T08:08:08;5.00;;;2.17;;
10122;SDS011;5101;49.038;8.710;2022-08-21T08:10:35;6.57;;;2.20;;
10122;SDS011;5101;49.038;8.710;2022-08-21T08:13:02;6.05;;;1.90;;
10122;SDS011;5101;49.038;8.710;2022-08-21T08:15:28;4.78;;;2.10;;
10122;SDS011;5101;49.038;8.710;2022-08-21T08:17:54;4.07;;;2.20;;
10122;SDS011;5101;49.038;8.710;2022-08-21T08:20:21;4.03;;;2.45;;
10122;SDS011;5101;49.038;8.710;2022-08-21T08:22:47;4.10;;;1.85;;
10122;SDS011;5101;49.038;8.710;2022-08-21T08:25:15;4.65;;;2.15;;
10122;SDS011;5101;49.038;8.710;2022-08-21T08:27:41;5.90;;;2.17;;
10122;SDS011;5101;49.038;8.710;2022-08-21T08:30:08;4.35;;;2.45;;
10122;SDS011;5101;49.038;8.710;2022-08-21T08:32:36;4.60;;;2.47;;
10122;SDS011;5101;49.038;8.710;2022-08-21T08:35:01;5.47;;;2.55;;
10122;SDS011;5101;49.038;8.710;2022-08-21T08:37:28;5.38;;;2.10;;
10122;SDS011;5101;49.038;8.710;2022-08-21T08:39:53;5.28;;;2.50;;
10122;SDS011;5101;49.038;8.710;2022-08-21T08:42:26;3.92;;;2.20;;
10122;SDS011;5101;49.038;8.710;2022-08-21T08:44:59;5.78;;;2.80;;
10122;SDS011;5101;49.038;8.710;2022-08-21T08:47:29;4.65;;;2.50;;
10122;SDS011;5101;49.038;8.710;2022-08-21T08:52:37;4.32;;;2.40;;
10122;SDS011;5101;49.038;8.710;2022-08-21T08:55:09;7.07;;;2.60;;
10122;SDS011;5101;49.038;8.710;2022-08-21T08:57:48;6.03;;;2.58;;
10122;SDS011;5101;49.038;8.710;2022-08-21T09:00:17;6.03;;;2.40;;
10122;SDS011;5101;49.038;8.710;2022-08-21T09:02:44;4.75;;;2.45;;
10122;SDS011;5101;49.038;8.710;2022-08-21T09:05:58;3.47;;;2.35;;
10122;SDS011;5101;49.038;8.710;2022-08-21T09:11:06;3.50;;;2.60;;
10122;SDS011;5101;49.038;8.710;2022-08-21T09:13:55;3.95;;;2.13;;
10122;SDS011;5101;49.038;8.710;2022-08-21T09:19:11;3.88;;;2.22;;
10122;SDS011;5101;49.038;8.710;2022-08-21T09:24:29;4.88;;;2.65;;
10122;SDS011;5101;49.038;8.710;2022-08-21T09:27:16;4.35;;;2.40;;
10122;SDS011;5101;49.038;8.710;2022-08-21T09:29:46;3.92;;;2.17;;
10122;SDS011;5101;49.038;8.710;2022-08-21T09:32:20;3.63;;;1.92;;
10122;SDS011;5101;49.038;8.710;2022-08-21T09:34:55;3.53;;;2.10;;
10122;SDS011;5101;49.038;8.710;2022-08-21T09:37:45;5.20;;;2.25;;
10122;SDS011;5101;49.038;8.710;2022-08-21T09:40:26;2.47;;;2.08;;
10122;SDS011;5101;49.038;8.710;2022-08-21T09:45:36;4.38;;;1.95;;
10122;SDS011;5101;49.038;8.710;2022-08-21T09:48:11;6.63;;;2.30;;
10122;SDS011;5101;49.038;8.710;2022-08-21T09:50:45;4.20;;;2.05;;
10122;SDS011;5101;49.038;8.710;2022-08-21T09:53:30;4.15;;;2.00;;
10122;SDS011;5101;49.038;8.710;2022-08-21T09:56:00;5.20;;;2.25;;
10122;SDS011;5101;49.038;8.710;2022-08-21T09:58:48;5.85;;;2.30;;
10122;SDS011;5101;49.038;8.710;2022-08-21T10:01:19;6.25;;;2.00;;
10122;SDS011;5101;49.038;8.710;2022-08-21T10:03:47;4.68;;;2.13;;
10122;SDS011;5101;49.038;8.710;2022-08-21T10:06:25;4.13;;;2.05;;
10122;SDS011;5101;49.038;8.710;2022-08-21T10:09:03;4.00;;;1.92;;
10122;SDS011;5101;49.038;8.710;2022-08-21T10:11:32;4.97;;;2.08;;
10122;SDS011;5101;49.038;8.710;2022-08-21T10:14:01;4.43;;;2.58;;
10122;SDS011;5101;49.038;8.710;2022-08-21T10:19:24;3.55;;;1.70;;
10122;SDS011;5101;49.038;8.710;2022-08-21T10:27:49;5.40;;;2.20;;
10122;SDS011;5101;49.038;8.710;2022-08-21T10:35:36;3.97;;;1.98;;
10122;SDS011;5101;49.038;8.710;2022-08-21T10:41:27;4.10;;;2.33;;
10122;SDS011;5101;49.038;8.710;2022-08-21T10:47:05;5.13;;;1.95;;
10122;SDS011;5101;49.038;8.710;2022-08-21T10:50:03;3.95;;;2.15;;
10122;SDS011;5101;49.038;8.710;2022-08-21T10:52:54;4.15;;;2.15;;
10122;SDS011;5101;49.038;8.710;2022-08-21T10:55:36;3.38;;;2.03;;
10122;SDS011;5101;49.038;8.710;2022-08-21T10:58:09;5.20;;;2.20;;
10122;SDS011;5101;49.038;8.710;2022-08-21T11:00:48;4.78;;;1.83;;
10122;SDS011;5101;49.038;8.710;2022-08-21T11:03:24;3.10;;;2.20;;
10122;SDS011;5101;49.038;8.710;2022-08-21T11:05:55;3.67;;;2.00;;
10122;SDS011;5101;49.038;8.710;2022-08-21T11:08:29;3.50;;;2.10;;
10122;SDS011;5101;49.038;8.710;2022-08-21T11:11:04;3.72;;;2.10;;
10122;SDS011;5101;49.038;8.710;2022-08-21T11:16:18;4.47;;;2.22;;
10122;SDS011;5101;49.038;8.710;2022-08-21T11:19:08;5.13;;;2.17;;
10122;SDS011;5101;49.038;8.710;2022-08-21T11:22:00;4.05;;;2.17;;
10122;SDS011;5101;49.038;8.710;2022-08-21T11:30:12;5.50;;;2.42;;
10122;SDS011;5101;49.038;8.710;2022-08-21T11:32:53;4.13;;;2.53;;
10122;SDS011;5101;49.038;8.710;2022-08-21T11:35:38;5.13;;;2.47;;
10122;SDS011;5101;49.038;8.710;2022-08-21T11:38:42;4.65;;;2.20;;
10122;SDS011;5101;49.038;8.710;2022-08-21T11:43:53;7.35;;;2.25;;
10122;SDS011;5101;49.038;8.710;2022-08-21T11:46:43;2.55;;;2.00;;
10122;SDS011;5101;49.038;8.710;2022-08-21T11:52:24;3.83;;;1.92;;
10122;SDS011;5101;49.038;8.710;2022-08-21T11:58:25;4.13;;;2.45;;
10122;SDS011;5101;49.038;8.710;2022-08-21T12:00:56;5.60;;;1.92;;
10122;SDS011;5101;49.038;8.710;2022-08-21T12:06:15;4.82;;;1.70;;
10122;SDS011;5101;49.038;8.710;2022-08-21T12:09:06;4.20;;;1.85;;
10122;SDS011;5101;49.038;8.710;2022-08-21T12:14:48;2.88;;;1.80;;
10122;SDS011;5101;49.038;8.710;2022-08-21T12:17:19;4.60;;;1.95;;
10122;SDS011;5101;49.038;8.710;2022-08-21T12:19:56;3.80;;;1.77;;
10122;SDS011;5101;49.038;8.710;2022-08-21T12:22:24;6.18;;;2.00;;
10122;SDS011;5101;49.038;8.710;2022-08-21T12:25:03;3.97;;;1.80;;
10122;SDS011;5101;49.038;8.710;2022-08-21T12:27:50;4.20;;;1.92;;
10122;SDS011;5101;49.038;8.710;2022-08-21T12:30:32;5.13;;;2.20;;
10122;SDS011;5101;49.038;8.710;2022-08-21T12:33:02;3.42;;;1.70;;
10122;SDS011;5101;49.038;8.710;2022-08-21T12:35:36;3.67;;;1.75;;
10122;SDS011;5101;49.038;8.710;2022-08-21T12:38:26;2.83;;;2.00;;
10122;SDS011;5101;49.038;8.710;2022-08-21T12:40:58;4.68;;;1.98;;
10122;SDS011;5101;49.038;8.710;2022-08-21T12:43:35;4.45;;;1.77;;
10122;SDS011;5101;49.038;8.710;2022-08-21T12:46:05;5.75;;;1.77;;
10122;SDS011;5101;49.038;8.710;2022-08-21T12:48:48;2.17;;;1.50;;
10122;SDS011;5101;49.038;8.710;2022-08-21T12:52:02;2.35;;;1.33;;
10122;SDS011;5101;49.038;8.710;2022-08-21T12:54:21;4.10;;;1.58;;
10122;SDS011;5101;49.038;8.710;2022-08-21T12:56:57;4.88;;;1.70;;
10122;SDS011;5101;49.038;8.710;2022-08-21T12:59:28;2.47;;;1.77;;
10122;SDS011;5101;49.038;8.710;2022-08-21T13:01:54;4.00;;;2.00;;
10122;SDS011;5101;49.038;8.710;2022-08-21T13:04:22;3.10;;;1.95;;
10122;SDS011;5101;49.038;8.710;2022-08-21T13:07:10;4.57;;;1.77;;
10122;SDS011;5101;49.038;8.710;2022-08-21T13:09:43;3.25;;;2.00;;
10122;SDS011;5101;49.038;8.710;2022-08-21T13:12:12;3.58;;;2.00;;
10122;SDS011;5101;49.038;8.710;2022-08-21T13:14:40;6.35;;;2.03;;
10122;SDS011;5101;49.038;8.710;2022-08-21T13:17:09;2.80;;;1.92;;
10122;SDS011;5101;49.038;8.710;2022-08-21T13:19:36;4.68;;;1.60;;
10122;SDS011;5101;49.038;8.710;2022-08-21T13:22:02;3.80;;;2.10;;
10122;SDS011;5101;49.038;8.710;2022-08-21T13:24:35;3.33;;;1.77;;
10122;SDS011;5101;49.038;8.710;2022-08-21T13:27:02;1.85;;;1.52;;
10122;SDS011;5101;49.038;8.710;2022-08-21T13:29:29;2.75;;;2.00;;
10122;SDS011;5101;49.038;8.710;2022-08-21T13:32:00;5.05;;;1.88;;
10122;SDS011;5101;49.038;8.710;2022-08-21T13:34:30;2.90;;;2.00;;
10122;SDS011;5101;49.038;8.710;2022-08-21T13:36:58;2.67;;;1.60;;
10122;SDS011;5101;49.038;8.710;2022-08-21T13:39:26;4.68;;;1.90;;
10122;SDS011;5101;49.038;8.710;2022-08-21T13:41:54;3.00;;;1.88;;
10122;SDS011;5101;49.038;8.710;2022-08-21T13:44:35;4.28;;;1.80;;
10122;SDS011;5101;49.038;8.710;2022-08-21T13:47:10;4.45;;;1.70;;
10122;SDS011;5101;49.038;8.710;2022-08-21T13:49:39;3.35;;;1.80;;
10122;SDS011;5101;49.038;8.710;2022-08-21T13:52:22;5.63;;;1.50;;
10122;SDS011;5101;49.038;8.710;2022-08-21T13:54:52;2.50;;;1.58;;
10122;SDS011;5101;49.038;8.710;2022-08-21T13:57:27;5.00;;;1.83;;
10122;SDS011;5101;49.038;8.710;2022-08-21T14:00:11;4.72;;;2.00;;
10122;SDS011;5101;49.038;8.710;2022-08-21T14:02:46;2.38;;;1.67;;
10122;SDS011;5101;49.038;8.710;2022-08-21T14:05:25;2.55;;;1.77;;
10122;SDS011;5101;49.038;8.710;2022-08-21T14:07:58;2.63;;;1.70;;
10122;SDS011;5101;49.038;8.710;2022-08-21T14:10:42;6.07;;;2.05;;
10122;SDS011;5101;49.038;8.710;2022-08-21T14:16:01;4.35;;;2.00;;
10122;SDS011;5101;49.038;8.710;2022-08-21T14:18:28;3.13;;;1.60;;
10122;SDS011;5101;49.038;8.710;2022-08-21T14:21:08;3.17;;;1.83;;
10122;SDS011;5101;49.038;8.710;2022-08-21T14:23:34;2.88;;;1.80;;
10122;SDS011;5101;49.038;8.710;2022-08-21T14:26:02;3.38;;;1.73;;
10122;SDS011;5101;49.038;8.710;2022-08-21T14:28:39;4.00;;;1.98;;
10122;SDS011;5101;49.038;8.710;2022-08-21T14:31:16;4.47;;;2.03;;
10122;SDS011;5101;49.038;8.710;2022-08-21T14:33:44;3.60;;;1.80;;
10122;SDS011;5101;49.038;8.710;2022-08-21T14:36:10;3.90;;;1.65;;
10122;SDS011;5101;49.038;8.710;2022-08-21T14:38:37;4.25;;;1.52;;
10122;SDS011;5101;49.038;8.710;2022-08-21T14:41:08;4.47;;;2.22;;
10122;SDS011;5101;49.038;8.710;2022-08-21T14:43:44;4.13;;;2.03;;
10122;SDS011;5101;49.038;8.710;2022-08-21T14:46:12;2.97;;;1.52;;
10122;SDS011;5101;49.038;8.710;2022-08-21T14:48:43;3.30;;;1.92;;
10122;SDS011;5101;49.038;8.710;2022-08-21T14:51:09;2.65;;;1.77;;
10122;SDS011;5101;49.038;8.710;2022-08-21T14:53:34;4.03;;;2.00;;
10122;SDS011;5101;49.038;8.710;2022-08-21T14:56:00;4.60;;;2.08;;
10122;SDS011;5101;49.038;8.710;2022-08-21T14:58:36;2.85;;;1.67;;
10122;SDS011;5101;49.038;8.710;2022-08-21T15:01:04;2.67;;;1.83;;
10122;SDS011;5101;49.038;8.710;2022-08-21T15:03:31;1.65;;;1.50;;
10122;SDS011;5101;49.038;8.710;2022-08-21T15:05:58;2.47;;;1.70;;
10122;SDS011;5101;49.038;8.710;2022-08-21T15:08:23;3.20;;;1.77;;
10122;SDS011;5101;49.038;8.710;2022-08-21T15:10:49;2.75;;;1.67;;
10122;SDS011;5101;49.038;8.710;2022-08-21T15:13:17;2.92;;;1.75;;
10122;SDS011;5101;49.038;8.710;2022-08-21T15:15:44;3.65;;;1.80;;
10122;SDS011;5101;49.038;8.710;2022-08-21T15:18:12;2.92;;;1.95;;
10122;SDS011;5101;49.038;8.710;2022-08-21T15:20:38;3.13;;;1.90;;
10122;SDS011;5101;49.038;8.710;2022-08-21T15:23:04;3.83;;;1.80;;
10122;SDS011;5101;49.038;8.710;2022-08-21T15:25:30;4.47;;;1.90;;
10122;SDS011;5101;49.038;8.710;2022-08-21T15:27:56;4.40;;;1.80;;
10122;SDS011;5101;49.038;8.710;2022-08-21T15:30:23;2.50;;;1.75;;
10122;SDS011;5101;49.038;8.710;2022-08-21T15:32:48;6.28;;;1.77;;
10122;SDS011;5101;49.038;8.710;2022-08-21T15:35:14;3.65;;;2.00;;
10122;SDS011;5101;49.038;8.710;2022-08-21T15:37:39;2.58;;;1.90;;
10122;SDS011;5101;49.038;8.710;2022-08-21T15:40:05;5.10;;;2.00;;
10122;SDS011;5101;49.038;8.710;2022-08-21T15:42:32;2.65;;;1.55;;
10122;SDS011;5101;49.038;8.710;2022-08-21T15:44:58;2.03;;;1.60;;
10122;SDS011;5101;49.038;8.710;2022-08-21T15:47:27;2.95;;;1.60;;
10122;SDS011;5101;49.038;8.710;2022-08-21T15:49:55;3.60;;;1.92;;
10122;SDS011;5101;49.038;8.710;2022-08-21T15:52:21;3.00;;;1.38;;
10122;SDS011;5101;49.038;8.710;2022-08-21T15:54:48;3.30;;;1.55;;
10122;SDS011;5101;49.038;8.710;2022-08-21T15:57:14;2.50;;;1.95;;
10122;SDS011;5101;49.038;8.710;2022-08-21T15:59:44;5.00;;;2.00;;
10122;SDS011;5101;49.038;8.710;2022-08-21T16:02:17;4.45;;;1.70;;
10122;SDS011;5101;49.038;8.710;2022-08-21T16:04:46;4.63;;;1.75;;
10122;SDS011;5101;49.038;8.710;2022-08-21T16:07:11;2.85;;;1.58;;
10122;SDS011;5101;49.038;8.710;2022-08-21T16:09:37;2.10;;;1.85;;
10122;SDS011;5101;49.038;8.710;2022-08-21T16:12:04;2.53;;;1.73;;
10122;SDS011;5101;49.038;8.710;2022-08-21T16:14:30;2.15;;;1.60;;
10122;SDS011;5101;49.038;8.710;2022-08-21T16:16:56;2.63;;;1.58;;
10122;SDS011;5101;49.038;8.710;2022-08-21T16:19:23;4.22;;;1.60;;